createdAt,value
2023-01-20T00:03:42.647Z,1.90
2023-01-20T00:08:44.127Z,2.50
2023-01-20T00:19:00.911Z,3.78
2023-01-20T00:24:02.390Z,3.40
2023-01-20T00:29:03.846Z,3.90
2023-01-20T00:34:05.460Z,3.40
2023-01-20T00:39:06.926Z,3.58
2023-01-20T00:44:08.340Z,3.28
2023-01-20T00:49:09.980Z,3.58
2023-01-20T00:54:11.364Z,3.97
2023-01-20T00:59:12.735Z,4.20
2023-01-20T01:09:29.433Z,4.35
2023-01-20T01:14:31.411Z,4.65
2023-01-20T01:19:32.957Z,4.30
2023-01-20T01:24:34.351Z,4.05
2023-01-20T01:29:35.778Z,3.92
2023-01-20T01:34:37.158Z,4.72
2023-01-20T01:39:38.571Z,4.78
2023-01-20T01:44:59.949Z,4.90
2023-01-20T01:50:01.441Z,4.90
2023-01-20T01:55:03.278Z,5.78
2023-01-20T02:00:06.232Z,6.15
2023-01-20T02:05:07.800Z,5.78
2023-01-20T02:10:09.521Z,6.15
2023-01-20T02:15:11.169Z,6.22
2023-01-20T02:20:21.471Z,7.00
2023-01-20T02:25:41.452Z,7.50
2023-01-20T02:30:54.216Z,7.00
2023-01-20T02:35:59.959Z,7.50
2023-01-20T02:41:10.339Z,7.78
2023-01-20T02:46:14.139Z,7.18
2023-01-20T02:51:22.926Z,7.63
2023-01-20T02:56:26.878Z,7.20
2023-01-20T03:01:33.613Z,6.68
2023-01-20T03:06:37.224Z,6.55
2023-01-20T03:11:41.220Z,6.00
2023-01-20T03:16:42.755Z,7.05
2023-01-20T03:21:44.348Z,5.57
2023-01-20T03:26:45.799Z,6.18
2023-01-20T03:31:50.013Z,6.68
2023-01-20T03:36:52.188Z,7.78
2023-01-20T03:42:01.238Z,8.57
2023-01-20T03:47:08.782Z,12.47
2023-01-20T03:52:16.468Z,15.35
2023-01-20T03:57:20.079Z,15.23
2023-01-20T04:02:22.535Z,16.45
2023-01-20T04:07:33.061Z,16.08
2023-01-20T04:12:34.572Z,16.85
2023-01-20T04:17:36.029Z,18.30
2023-01-20T04:22:57.332Z,17.95
2023-01-20T04:27:58.803Z,18.70
2023-01-20T04:33:00.245Z,17.98
2023-01-20T04:38:01.724Z,18.13
2023-01-20T04:43:03.176Z,17.23
2023-01-20T04:48:23.150Z,19.45
2023-01-20T04:53:24.559Z,16.98
2023-01-20T04:58:25.979Z,16.50
2023-01-20T05:03:39.267Z,18.10
2023-01-20T05:08:41.059Z,17.35
2023-01-20T05:13:42.750Z,15.70
2023-01-20T05:18:44.211Z,15.82
2023-01-20T05:23:45.593Z,15.48
2023-01-20T05:28:46.978Z,14.73
2023-01-20T05:33:48.345Z,18.10
2023-01-20T05:38:49.746Z,14.65
2023-01-20T05:43:52.824Z,13.95
2023-01-20T05:48:54.264Z,14.20
2023-01-20T05:53:55.835Z,15.25
2023-01-20T05:58:57.350Z,15.10
2023-01-20T06:03:58.827Z,14.43
2023-01-20T06:09:00.260Z,14.55
2023-01-20T06:14:01.945Z,13.88
2023-01-20T06:19:03.430Z,13.82
2023-01-20T06:24:05.054Z,13.05
2023-01-20T06:29:06.568Z,13.82
2023-01-20T06:34:08.017Z,15.45
2023-01-20T06:39:09.481Z,15.55
2023-01-20T06:44:10.919Z,16.23
2023-01-20T06:49:12.440Z,17.48
2023-01-20T06:54:13.892Z,17.50
2023-01-20T06:59:15.280Z,17.88
2023-01-20T07:04:16.686Z,16.38
2023-01-20T07:09:18.101Z,17.88
2023-01-20T07:14:19.571Z,19.80
2023-01-20T07:19:21.108Z,17.92
2023-01-20T07:24:22.548Z,20.65
2023-01-20T07:29:23.985Z,18.17
2023-01-20T07:34:25.506Z,19.10
2023-01-20T07:39:45.048Z,19.25
2023-01-20T07:44:46.568Z,20.35
2023-01-20T07:49:47.955Z,19.95
2023-01-20T07:54:49.367Z,20.13
2023-01-20T07:59:50.794Z,20.42
2023-01-20T08:04:52.277Z,19.27
2023-01-20T08:09:53.814Z,19.00
2023-01-20T08:14:55.535Z,19.45
2023-01-20T08:19:57.013Z,19.65
2023-01-20T08:24:58.419Z,19.90
2023-01-20T08:29:59.969Z,19.13
2023-01-20T08:35:01.441Z,19.38
2023-01-20T08:40:02.979Z,19.35
2023-01-20T08:45:04.987Z,18.23
2023-01-20T08:50:06.773Z,18.17
2023-01-20T08:55:08.861Z,19.52
2023-01-20T09:00:11.078Z,20.38
2023-01-20T09:05:13.426Z,21.88
2023-01-20T09:10:15.091Z,19.83
2023-01-20T09:15:17.076Z,19.58
2023-01-20T09:20:18.549Z,20.60
2023-01-20T09:25:20.280Z,18.92
2023-01-20T09:30:21.790Z,19.17
2023-01-20T09:35:23.238Z,17.05
2023-01-20T09:41:02.560Z,19.83
2023-01-20T09:46:10.253Z,19.48
2023-01-20T09:51:34.278Z,19.02
2023-01-20T09:56:38.538Z,19.98
2023-01-20T10:01:44.697Z,20.50
2023-01-20T10:06:48.710Z,19.70
2023-01-20T10:11:51.655Z,21.33
2023-01-20T10:16:53.059Z,20.08
2023-01-20T10:22:01.376Z,18.73
2023-01-20T10:27:03.800Z,18.65
2023-01-20T10:32:16.224Z,17.58
2023-01-20T10:37:17.696Z,16.65
2023-01-20T10:42:20.166Z,17.63
2023-01-20T10:47:21.576Z,16.08
2023-01-20T10:52:31.797Z,16.92
2023-01-20T10:57:33.888Z,14.95
2023-01-20T11:02:37.891Z,14.93
2023-01-20T11:07:40.400Z,13.48
2023-01-20T11:13:00.627Z,11.52
2023-01-20T11:23:03.369Z,11.77
2023-01-20T11:28:06.212Z,13.10
2023-01-20T11:33:19.050Z,12.15
2023-01-20T11:38:24.922Z,11.98
2023-01-20T11:43:30.765Z,9.80
2023-01-20T11:48:32.229Z,10.98
2023-01-20T11:53:34.165Z,11.90
2023-01-20T11:58:48.951Z,11.63
2023-01-20T12:03:50.366Z,11.07
2023-01-20T12:09:02.711Z,11.07
2023-01-20T12:14:22.741Z,11.27
2023-01-20T12:19:27.665Z,12.23
2023-01-20T12:24:52.181Z,11.70
2023-01-20T12:29:56.226Z,11.77
2023-01-20T12:34:57.672Z,12.60
2023-01-20T12:40:01.947Z,12.48
2023-01-20T12:45:09.806Z,11.90
2023-01-20T12:50:30.134Z,10.65
2023-01-20T12:55:36.513Z,12.15
2023-01-20T13:00:58.393Z,12.02
2023-01-20T13:06:15.099Z,12.40
2023-01-20T13:11:28.938Z,12.38
2023-01-20T13:16:49.032Z,11.25
2023-01-20T13:22:06.525Z,13.52
2023-01-20T13:27:10.207Z,13.98
2023-01-20T13:32:30.174Z,13.18
2023-01-20T13:37:35.551Z,11.70
2023-01-20T13:42:36.925Z,13.05
2023-01-20T13:48:00.011Z,12.82
2023-01-20T13:53:02.435Z,11.93
2023-01-20T13:58:03.822Z,11.45
2023-01-20T14:03:12.616Z,11.30
2023-01-20T14:08:15.177Z,12.68
2023-01-20T14:13:18.738Z,11.23
2023-01-20T14:18:24.973Z,10.82
2023-01-20T14:23:28.663Z,11.25
2023-01-20T14:28:30.349Z,10.27
2023-01-20T14:33:31.784Z,10.77
2023-01-20T14:38:33.323Z,10.63
2023-01-20T14:43:34.765Z,11.32
2023-01-20T14:48:37.222Z,10.50
2023-01-20T14:53:38.643Z,11.77
2023-01-20T14:58:44.586Z,12.55
2023-01-20T15:03:46.130Z,13.27
2023-01-20T15:09:05.126Z,14.18
2023-01-20T15:14:10.963Z,12.27
2023-01-20T15:19:15.361Z,13.18
2023-01-20T15:24:19.679Z,14.13
2023-01-20T15:29:23.967Z,14.13
2023-01-20T15:34:25.683Z,14.45
2023-01-20T15:39:30.285Z,15.48
2023-01-20T15:44:31.748Z,15.88
2023-01-20T15:49:33.178Z,14.43
2023-01-20T15:54:34.556Z,16.80
2023-01-20T15:59:36.232Z,15.57
2023-01-20T16:04:37.624Z,14.95
2023-01-20T16:09:39.166Z,13.95
2023-01-20T16:14:40.658Z,13.50
2023-01-20T16:19:42.527Z,12.82
2023-01-20T16:24:44.196Z,13.25
2023-01-20T16:29:45.614Z,14.07
2023-01-20T16:34:47.068Z,13.82
2023-01-20T16:39:48.467Z,14.95
2023-01-20T16:44:52.576Z,13.23
2023-01-20T16:49:54.027Z,13.20
2023-01-20T16:54:55.465Z,12.63
2023-01-20T16:59:56.875Z,13.73
2023-01-20T17:04:58.299Z,13.25
2023-01-20T17:09:59.751Z,12.82
2023-01-20T17:15:01.193Z,12.23
2023-01-20T17:20:02.635Z,12.75
2023-01-20T17:25:04.949Z,12.25
2023-01-20T17:30:10.133Z,13.52
2023-01-20T17:35:11.605Z,11.63
2023-01-20T17:40:13.575Z,12.18
2023-01-20T17:45:15.410Z,11.30
2023-01-20T17:50:17.272Z,12.00
2023-01-20T17:55:18.924Z,12.65
2023-01-20T18:00:20.554Z,13.20
2023-01-20T18:05:22.085Z,12.02
2023-01-20T18:10:23.503Z,13.63
2023-01-20T18:15:24.909Z,12.40
2023-01-20T18:20:26.402Z,12.20
2023-01-20T18:25:27.879Z,13.48
2023-01-20T18:30:29.315Z,11.18
2023-01-20T18:35:30.745Z,12.25
2023-01-20T18:40:32.415Z,12.70
2023-01-20T18:45:33.833Z,13.13
2023-01-20T18:50:35.267Z,12.55
2023-01-20T18:55:36.677Z,13.60
2023-01-20T19:00:38.421Z,14.73
2023-01-20T19:05:40.032Z,14.52
2023-01-20T19:10:41.513Z,14.45
2023-01-20T19:15:42.974Z,15.85
2023-01-20T19:20:44.483Z,16.27
2023-01-20T19:25:45.931Z,15.88
2023-01-20T19:30:47.483Z,15.75
2023-01-20T19:35:48.955Z,15.95
2023-01-20T19:40:50.515Z,16.10
2023-01-20T19:45:51.911Z,15.30
2023-01-20T19:50:53.433Z,16.92
2023-01-20T19:56:00.230Z,15.90
2023-01-20T20:01:12.302Z,15.75
2023-01-20T20:06:30.302Z,16.00
2023-01-20T20:11:32.507Z,16.92
2023-01-20T20:16:34.986Z,16.23
2023-01-20T20:21:36.648Z,17.63
2023-01-20T20:26:38.392Z,15.85
2023-01-20T20:31:40.495Z,16.30
2023-01-20T20:36:42.053Z,16.05
2023-01-20T20:41:43.927Z,16.52
2023-01-20T20:46:45.380Z,17.02
2023-01-20T20:51:46.997Z,17.23
2023-01-20T20:56:48.628Z,18.63
2023-01-20T21:01:50.595Z,18.30
2023-01-20T21:06:52.061Z,18.83
2023-01-20T21:11:53.507Z,19.27
2023-01-20T21:16:54.976Z,19.15
2023-01-20T21:21:56.390Z,19.50
2023-01-20T21:26:57.783Z,19.23
2023-01-20T21:31:59.158Z,21.15
2023-01-20T21:37:00.652Z,19.38
2023-01-20T21:42:02.175Z,21.40
2023-01-20T21:47:05.111Z,25.65
2023-01-20T21:52:27.906Z,30.90
2023-01-20T21:57:29.806Z,18.83
2023-01-20T22:02:31.197Z,19.13
2023-01-20T22:07:32.750Z,19.23
2023-01-20T22:12:35.631Z,18.83
2023-01-20T22:17:37.755Z,19.58
2023-01-20T22:22:39.191Z,18.67
2023-01-20T22:27:40.618Z,19.42
2023-01-20T22:32:42.068Z,18.67
2023-01-20T22:37:44.151Z,19.25
2023-01-20T22:42:45.760Z,19.48
2023-01-20T22:47:47.173Z,18.63
2023-01-20T22:52:48.641Z,19.25
2023-01-20T22:57:50.242Z,19.60
2023-01-20T23:02:51.682Z,19.40
2023-01-20T23:07:53.075Z,19.20
2023-01-20T23:13:00.581Z,18.17
2023-01-20T23:18:01.984Z,20.17
2023-01-20T23:23:03.733Z,19.05
2023-01-20T23:28:05.177Z,17.45
2023-01-20T23:33:06.988Z,18.08
2023-01-20T23:38:08.739Z,18.88
2023-01-20T23:43:10.141Z,20.23
2023-01-20T23:48:11.544Z,18.52
2023-01-20T23:53:12.974Z,19.30
2023-01-20T23:58:14.778Z,19.42
